sensor_id;sensor_type;location;lat;lon;timestamp;pressure;altitude;pressure_sealevel;temperature;humidity
51530;BME280;37613;51.788;21.582;2022-12-29T00:02:25;100002.22;;;3.48;89.62
51530;BME280;37613;51.788;21.582;2022-12-29T00:06:27;100003.92;;;3.47;89.56
51530;BME280;37613;51.788;21.582;2022-12-29T00:10:29;100007.65;;;3.46;89.42
51530;BME280;37613;51.788;21.582;2022-12-29T00:14:31;100007.14;;;3.45;89.48
51530;BME280;37613;51.788;21.582;2022-12-29T00:18:52;100011.13;;;3.44;89.46
51530;BME280;37613;51.788;21.582;2022-12-29T00:22:54;100006.95;;;3.43;89.41
51530;BME280;37613;51.788;21.582;2022-12-29T00:27:14;99998.08;;;3.42;89.60
51530;BME280;37613;51.788;21.582;2022-12-29T00:31:34;99991.24;;;3.43;89.54
51530;BME280;37613;51.788;21.582;2022-12-29T00:35:59;99992.31;;;3.46;89.59
51530;BME280;37613;51.788;21.582;2022-12-29T00:45:40;99987.37;;;3.48;89.48
51530;BME280;37613;51.788;21.582;2022-12-29T00:49:42;99980.63;;;3.50;89.56
51530;BME280;37613;51.788;21.582;2022-12-29T00:53:44;99979.76;;;3.50;89.43
51530;BME280;37613;51.788;21.582;2022-12-29T00:57:46;99982.91;;;3.48;89.52
51530;BME280;37613;51.788;21.582;2022-12-29T01:01:48;99988.02;;;3.46;89.55
51530;BME280;37613;51.788;21.582;2022-12-29T01:05:50;99989.64;;;3.44;89.39
51530;BME280;37613;51.788;21.582;2022-12-29T01:09:52;99989.81;;;3.45;89.42
51530;BME280;37613;51.788;21.582;2022-12-29T01:14:12;99988.88;;;3.45;89.32
51530;BME280;37613;51.788;21.582;2022-12-29T01:18:14;99980.74;;;3.45;89.37
51530;BME280;37613;51.788;21.582;2022-12-29T01:22:16;99975.20;;;3.46;89.44
51530;BME280;37613;51.788;21.582;2022-12-29T01:26:18;99975.28;;;3.46;89.27
51530;BME280;37613;51.788;21.582;2022-12-29T01:30:20;99970.68;;;3.46;89.33
51530;BME280;37613;51.788;21.582;2022-12-29T01:34:22;99972.63;;;3.46;89.24
51530;BME280;37613;51.788;21.582;2022-12-29T01:38:24;99966.66;;;3.44;89.12
51530;BME280;37613;51.788;21.582;2022-12-29T01:42:26;99959.64;;;3.42;89.18
51530;BME280;37613;51.788;21.582;2022-12-29T01:46:38;99950.55;;;3.38;89.04
51530;BME280;37613;51.788;21.582;2022-12-29T01:50:45;99945.71;;;3.31;88.94
51530;BME280;37613;51.788;21.582;2022-12-29T01:54:52;99946.75;;;3.29;88.86
51530;BME280;37613;51.788;21.582;2022-12-29T01:59:02;99943.02;;;3.27;88.78
51530;BME280;37613;51.788;21.582;2022-12-29T02:03:07;99927.94;;;3.24;88.82
51530;BME280;37613;51.788;21.582;2022-12-29T02:07:16;99923.20;;;3.27;89.00
51530;BME280;37613;51.788;21.582;2022-12-29T02:11:21;99924.77;;;3.28;88.99
51530;BME280;37613;51.788;21.582;2022-12-29T02:20:37;99913.63;;;3.26;88.59
51530;BME280;37613;51.788;21.582;2022-12-29T02:42:51;99897.65;;;2.99;88.01
51530;BME280;37613;51.788;21.582;2022-12-29T02:47:34;99900.58;;;2.95;88.04
51530;BME280;37613;51.788;21.582;2022-12-29T02:51:52;99900.50;;;2.92;88.07
51530;BME280;37613;51.788;21.582;2022-12-29T02:55:56;99895.69;;;2.87;88.05
51530;BME280;37613;51.788;21.582;2022-12-29T03:00:03;99903.61;;;2.82;87.85
51530;BME280;37613;51.788;21.582;2022-12-29T03:12:56;99908.36;;;2.72;87.74
51530;BME280;37613;51.788;21.582;2022-12-29T03:17:26;99911.98;;;2.71;87.67
51530;BME280;37613;51.788;21.582;2022-12-29T03:21:40;99909.61;;;2.70;87.76
51530;BME280;37613;51.788;21.582;2022-12-29T03:26:05;99913.66;;;2.70;87.62
51530;BME280;37613;51.788;21.582;2022-12-29T03:30:09;99913.00;;;2.68;87.63
51530;BME280;37613;51.788;21.582;2022-12-29T03:34:13;99914.98;;;2.67;87.80
51530;BME280;37613;51.788;21.582;2022-12-29T03:38:34;99919.39;;;2.65;87.72
51530;BME280;37613;51.788;21.582;2022-12-29T03:42:38;99921.12;;;2.63;87.82
51530;BME280;37613;51.788;21.582;2022-12-29T03:46:41;99920.51;;;2.63;87.88
51530;BME280;37613;51.788;21.582;2022-12-29T03:50:43;99920.03;;;2.63;88.04
51530;BME280;37613;51.788;21.582;2022-12-29T03:54:45;99920.19;;;2.60;88.12
51530;BME280;37613;51.788;21.582;2022-12-29T03:58:47;99921.07;;;2.58;88.14
51530;BME280;37613;51.788;21.582;2022-12-29T04:02:48;99915.64;;;2.53;88.09
51530;BME280;37613;51.788;21.582;2022-12-29T04:06:51;99913.84;;;2.48;88.15
51530;BME280;37613;51.788;21.582;2022-12-29T04:10:53;99912.41;;;2.44;88.28
51530;BME280;37613;51.788;21.582;2022-12-29T04:14:55;99903.47;;;2.39;88.38
51530;BME280;37613;51.788;21.582;2022-12-29T04:18:57;99894.56;;;2.36;88.37
51530;BME280;37613;51.788;21.582;2022-12-29T04:23:00;99891.02;;;2.32;88.25
51530;BME280;37613;51.788;21.582;2022-12-29T04:27:03;99882.11;;;2.28;88.36
51530;BME280;37613;51.788;21.582;2022-12-29T04:31:05;99850.33;;;2.24;88.29
51530;BME280;37613;51.788;21.582;2022-12-29T04:35:07;99841.94;;;2.17;88.21
51530;BME280;37613;51.788;21.582;2022-12-29T04:39:09;99854.48;;;2.08;88.58
51530;BME280;37613;51.788;21.582;2022-12-29T04:43:12;99846.61;;;2.00;88.82
51530;BME280;37613;51.788;21.582;2022-12-29T04:47:15;99836.00;;;1.94;88.80
51530;BME280;37613;51.788;21.582;2022-12-29T04:51:17;99830.10;;;1.92;88.80
51530;BME280;37613;51.788;21.582;2022-12-29T04:55:19;99829.34;;;1.90;88.91
51530;BME280;37613;51.788;21.582;2022-12-29T04:59:21;99832.64;;;1.88;88.96
51530;BME280;37613;51.788;21.582;2022-12-29T05:03:23;99826.33;;;1.86;89.03
51530;BME280;37613;51.788;21.582;2022-12-29T05:07:25;99826.79;;;1.85;89.16
51530;BME280;37613;51.788;21.582;2022-12-29T05:11:27;99835.89;;;1.85;89.34
51530;BME280;37613;51.788;21.582;2022-12-29T05:15:29;99819.90;;;1.84;89.25
51530;BME280;37613;51.788;21.582;2022-12-29T05:19:31;99810.42;;;1.83;89.28
51530;BME280;37613;51.788;21.582;2022-12-29T05:23:33;99806.66;;;1.82;89.31
51530;BME280;37613;51.788;21.582;2022-12-29T05:27:36;99810.10;;;1.80;89.49
51530;BME280;37613;51.788;21.582;2022-12-29T05:31:38;99815.88;;;1.80;89.44
51530;BME280;37613;51.788;21.582;2022-12-29T05:35:40;99813.66;;;1.79;89.44
51530;BME280;37613;51.788;21.582;2022-12-29T05:39:42;99823.83;;;1.78;89.62
51530;BME280;37613;51.788;21.582;2022-12-29T05:43:44;99822.90;;;1.78;89.78
51530;BME280;37613;51.788;21.582;2022-12-29T05:47:46;99806.65;;;1.76;89.64
51530;BME280;37613;51.788;21.582;2022-12-29T05:51:48;99806.04;;;1.77;89.85
51530;BME280;37613;51.788;21.582;2022-12-29T05:55:50;99795.24;;;1.76;89.74
51530;BME280;37613;51.788;21.582;2022-12-29T05:59:53;99799.33;;;1.77;89.89
51530;BME280;37613;51.788;21.582;2022-12-29T06:03:55;99800.90;;;1.77;89.91
51530;BME280;37613;51.788;21.582;2022-12-29T06:07:57;99802.55;;;1.78;90.00
51530;BME280;37613;51.788;21.582;2022-12-29T06:11:59;99793.42;;;1.77;90.03
51530;BME280;37613;51.788;21.582;2022-12-29T06:16:01;99798.86;;;1.79;89.88
51530;BME280;37613;51.788;21.582;2022-12-29T06:20:03;99786.37;;;1.78;89.99
51530;BME280;37613;51.788;21.582;2022-12-29T06:24:06;99782.56;;;1.82;90.00
51530;BME280;37613;51.788;21.582;2022-12-29T06:28:08;99773.92;;;1.82;90.19
51530;BME280;37613;51.788;21.582;2022-12-29T06:32:12;99773.00;;;1.82;90.14
51530;BME280;37613;51.788;21.582;2022-12-29T06:36:14;99776.09;;;1.84;90.06
51530;BME280;37613;51.788;21.582;2022-12-29T06:40:16;99775.82;;;1.86;90.10
51530;BME280;37613;51.788;21.582;2022-12-29T06:44:18;99771.83;;;1.85;90.03
51530;BME280;37613;51.788;21.582;2022-12-29T06:48:20;99778.52;;;1.87;90.01
51530;BME280;37613;51.788;21.582;2022-12-29T06:52:22;99783.79;;;1.89;90.03
51530;BME280;37613;51.788;21.582;2022-12-29T06:56:25;99782.41;;;1.93;90.11
51530;BME280;37613;51.788;21.582;2022-12-29T07:00:28;99786.95;;;1.99;90.17
51530;BME280;37613;51.788;21.582;2022-12-29T07:04:30;99786.55;;;2.04;90.09
51530;BME280;37613;51.788;21.582;2022-12-29T07:08:32;99779.98;;;2.10;89.97
51530;BME280;37613;51.788;21.582;2022-12-29T07:12:34;99780.88;;;2.14;89.94
51530;BME280;37613;51.788;21.582;2022-12-29T07:16:36;99784.21;;;2.17;89.86
51530;BME280;37613;51.788;21.582;2022-12-29T07:20:38;99787.81;;;2.19;89.85
51530;BME280;37613;51.788;21.582;2022-12-29T07:24:40;99787.03;;;2.22;89.81
51530;BME280;37613;51.788;21.582;2022-12-29T07:28:43;99797.83;;;2.26;89.80
51530;BME280;37613;51.788;21.582;2022-12-29T07:32:45;99784.17;;;2.32;89.76
51530;BME280;37613;51.788;21.582;2022-12-29T07:36:47;99775.44;;;2.38;89.76
51530;BME280;37613;51.788;21.582;2022-12-29T07:40:49;99769.44;;;2.44;89.64
51530;BME280;37613;51.788;21.582;2022-12-29T07:44:52;99768.02;;;2.51;89.74
51530;BME280;37613;51.788;21.582;2022-12-29T07:48:54;99766.33;;;2.55;89.67
51530;BME280;37613;51.788;21.582;2022-12-29T07:52:56;99765.80;;;2.59;89.71
51530;BME280;37613;51.788;21.582;2022-12-29T07:56:58;99779.50;;;2.64;89.49
51530;BME280;37613;51.788;21.582;2022-12-29T08:01:01;99783.86;;;2.76;89.41
51530;BME280;37613;51.788;21.582;2022-12-29T08:05:04;99783.25;;;2.92;89.43
51530;BME280;37613;51.788;21.582;2022-12-29T08:09:06;99781.61;;;3.06;89.19
51530;BME280;37613;51.788;21.582;2022-12-29T08:13:08;99775.95;;;3.22;89.48
51530;BME280;37613;51.788;21.582;2022-12-29T08:17:10;99775.46;;;3.42;88.96
51530;BME280;37613;51.788;21.582;2022-12-29T08:21:12;99772.54;;;3.58;89.18
51530;BME280;37613;51.788;21.582;2022-12-29T08:25:14;99772.23;;;3.74;88.89
51530;BME280;37613;51.788;21.582;2022-12-29T08:29:16;99771.39;;;3.83;88.37
51530;BME280;37613;51.788;21.582;2022-12-29T08:33:19;99760.20;;;3.86;88.40
51530;BME280;37613;51.788;21.582;2022-12-29T08:37:21;99752.89;;;3.88;88.34
51530;BME280;37613;51.788;21.582;2022-12-29T08:41:23;99751.63;;;3.95;88.53
51530;BME280;37613;51.788;21.582;2022-12-29T08:45:25;99752.26;;;4.04;87.71
51530;BME280;37613;51.788;21.582;2022-12-29T08:49:27;99752.46;;;4.11;87.46
51530;BME280;37613;51.788;21.582;2022-12-29T08:53:29;99749.22;;;4.13;86.69
51530;BME280;37613;51.788;21.582;2022-12-29T08:57:31;99747.64;;;4.16;86.63
51530;BME280;37613;51.788;21.582;2022-12-29T09:01:33;99753.52;;;4.29;87.16
51530;BME280;37613;51.788;21.582;2022-12-29T09:05:38;99751.05;;;4.46;86.54
51530;BME280;37613;51.788;21.582;2022-12-29T09:09:42;99758.23;;;4.58;86.58
51530;BME280;37613;51.788;21.582;2022-12-29T09:13:45;99759.53;;;4.66;85.74
51530;BME280;37613;51.788;21.582;2022-12-29T09:17:47;99756.69;;;4.69;85.86
51530;BME280;37613;51.788;21.582;2022-12-29T09:21:49;99750.91;;;4.70;85.60
51530;BME280;37613;51.788;21.582;2022-12-29T09:25:52;99754.48;;;4.68;85.59
51530;BME280;37613;51.788;21.582;2022-12-29T09:29:54;99750.67;;;4.69;86.20
51530;BME280;37613;51.788;21.582;2022-12-29T09:33:56;99753.75;;;4.77;86.27
51530;BME280;37613;51.788;21.582;2022-12-29T09:37:58;99754.50;;;4.80;85.73
51530;BME280;37613;51.788;21.582;2022-12-29T09:46:43;99742.38;;;4.84;85.77
51530;BME280;37613;51.788;21.582;2022-12-29T09:50:50;99735.20;;;4.88;85.91
51530;BME280;37613;51.788;21.582;2022-12-29T09:54:58;99723.98;;;4.91;85.68
51530;BME280;37613;51.788;21.582;2022-12-29T09:59:09;99720.38;;;4.96;85.61
51530;BME280;37613;51.788;21.582;2022-12-29T10:03:17;99720.18;;;4.98;85.05
51530;BME280;37613;51.788;21.582;2022-12-29T10:15:58;99708.35;;;5.15;85.53
51530;BME280;37613;51.788;21.582;2022-12-29T10:20:24;99704.16;;;5.35;85.00
51530;BME280;37613;51.788;21.582;2022-12-29T10:24:39;99696.45;;;5.58;85.39
51530;BME280;37613;51.788;21.582;2022-12-29T10:29:05;99697.19;;;5.82;84.99
51530;BME280;37613;51.788;21.582;2022-12-29T10:33:15;99698.70;;;5.96;83.23
51530;BME280;37613;51.788;21.582;2022-12-29T10:37:45;99694.52;;;6.03;82.97
51530;BME280;37613;51.788;21.582;2022-12-29T10:46:19;99686.54;;;6.05;83.66
51530;BME280;37613;51.788;21.582;2022-12-29T10:50:25;99682.05;;;6.12;82.83
51530;BME280;37613;51.788;21.582;2022-12-29T10:58:55;99679.40;;;6.29;82.48
51530;BME280;37613;51.788;21.582;2022-12-29T11:07:21;99664.17;;;6.58;82.11
51530;BME280;37613;51.788;21.582;2022-12-29T11:11:28;99654.19;;;6.69;81.25
51530;BME280;37613;51.788;21.582;2022-12-29T11:15:46;99655.45;;;6.81;81.47
51530;BME280;37613;51.788;21.582;2022-12-29T11:19:52;99645.69;;;6.92;81.47
51530;BME280;37613;51.788;21.582;2022-12-29T11:24:02;99652.13;;;7.06;81.12
51530;BME280;37613;51.788;21.582;2022-12-29T11:28:16;99647.09;;;7.17;79.89
51530;BME280;37613;51.788;21.582;2022-12-29T11:32:22;99641.31;;;7.28;80.19
51530;BME280;37613;51.788;21.582;2022-12-29T11:36:28;99644.33;;;7.32;80.55
51530;BME280;37613;51.788;21.582;2022-12-29T11:40:38;99645.82;;;7.35;79.49
51530;BME280;37613;51.788;21.582;2022-12-29T11:44:44;99651.65;;;7.37;80.07
51530;BME280;37613;51.788;21.582;2022-12-29T11:48:49;99646.02;;;7.41;80.28
51530;BME280;37613;51.788;21.582;2022-12-29T11:52:58;99656.00;;;7.45;79.92
51530;BME280;37613;51.788;21.582;2022-12-29T11:57:14;99654.36;;;7.48;80.23
51530;BME280;37613;51.788;21.582;2022-12-29T12:01:20;99645.09;;;7.51;80.43
51530;BME280;37613;51.788;21.582;2022-12-29T12:09:54;99645.27;;;7.55;79.72
51530;BME280;37613;51.788;21.582;2022-12-29T12:14:28;99645.12;;;7.55;79.66
51530;BME280;37613;51.788;21.582;2022-12-29T12:18:40;99652.91;;;7.61;79.63
51530;BME280;37613;51.788;21.582;2022-12-29T12:22:54;99651.11;;;7.64;80.10
51530;BME280;37613;51.788;21.582;2022-12-29T12:31:51;99642.86;;;7.69;79.42
51530;BME280;37613;51.788;21.582;2022-12-29T12:36:22;99641.13;;;7.68;78.25
51530;BME280;37613;51.788;21.582;2022-12-29T12:45:17;99633.65;;;7.67;78.56
51530;BME280;37613;51.788;21.582;2022-12-29T13:02:23;99633.27;;;7.70;79.18
51530;BME280;37613;51.788;21.582;2022-12-29T13:06:40;99629.01;;;7.69;79.05
51530;BME280;37613;51.788;21.582;2022-12-29T13:15:44;99630.59;;;7.65;79.28
51530;BME280;37613;51.788;21.582;2022-12-29T13:20:06;99628.15;;;7.64;79.08
51530;BME280;37613;51.788;21.582;2022-12-29T13:24:26;99621.38;;;7.64;79.08
51530;BME280;37613;51.788;21.582;2022-12-29T13:33:07;99631.77;;;7.65;79.36
51530;BME280;37613;51.788;21.582;2022-12-29T13:37:17;99624.14;;;7.64;79.32
51530;BME280;37613;51.788;21.582;2022-12-29T13:41:30;99622.25;;;7.62;79.27
51530;BME280;37613;51.788;21.582;2022-12-29T13:45:34;99623.88;;;7.58;79.17
51530;BME280;37613;51.788;21.582;2022-12-29T13:49:38;99616.15;;;7.51;79.13
51530;BME280;37613;51.788;21.582;2022-12-29T13:53:51;99623.13;;;7.43;79.05
51530;BME280;37613;51.788;21.582;2022-12-29T14:07:00;99626.13;;;7.26;79.17
51530;BME280;37613;51.788;21.582;2022-12-29T14:11:09;99627.28;;;7.21;79.23
51530;BME280;37613;51.788;21.582;2022-12-29T14:23:39;99631.73;;;7.12;79.23
51530;BME280;37613;51.788;21.582;2022-12-29T14:27:51;99629.52;;;7.10;79.28
51530;BME280;37613;51.788;21.582;2022-12-29T14:31:55;99629.52;;;7.08;79.29
51530;BME280;37613;51.788;21.582;2022-12-29T14:36:29;99629.19;;;7.08;79.41
51530;BME280;37613;51.788;21.582;2022-12-29T14:40:35;99632.26;;;7.08;79.54
51530;BME280;37613;51.788;21.582;2022-12-29T14:44:52;99627.08;;;7.11;79.32
51530;BME280;37613;51.788;21.582;2022-12-29T14:48:56;99626.72;;;7.18;79.43
51530;BME280;37613;51.788;21.582;2022-12-29T14:53:05;99626.83;;;7.25;79.49
51530;BME280;37613;51.788;21.582;2022-12-29T14:57:15;99632.20;;;7.30;79.16
51530;BME280;37613;51.788;21.582;2022-12-29T15:05:54;99623.93;;;7.49;79.24
51530;BME280;37613;51.788;21.582;2022-12-29T15:10:05;99627.73;;;7.57;78.93
51530;BME280;37613;51.788;21.582;2022-12-29T15:14:36;99625.85;;;7.61;78.73
51530;BME280;37613;51.788;21.582;2022-12-29T15:18:38;99638.92;;;7.69;78.71
51530;BME280;37613;51.788;21.582;2022-12-29T15:22:44;99631.23;;;7.71;78.57
51530;BME280;37613;51.788;21.582;2022-12-29T15:26:50;99630.99;;;7.72;78.36
51530;BME280;37613;51.788;21.582;2022-12-29T15:30:55;99635.16;;;7.71;78.26
51530;BME280;37613;51.788;21.582;2022-12-29T15:34:58;99640.66;;;7.68;77.68
51530;BME280;37613;51.788;21.582;2022-12-29T15:39:27;99647.81;;;7.65;78.09
51530;BME280;37613;51.788;21.582;2022-12-29T15:47:55;99655.34;;;7.59;77.85
51530;BME280;37613;51.788;21.582;2022-12-29T15:51:58;99655.89;;;7.56;78.01
51530;BME280;37613;51.788;21.582;2022-12-29T15:56:09;99661.91;;;7.50;77.89
51530;BME280;37613;51.788;21.582;2022-12-29T16:00:30;99661.02;;;7.42;77.94
51530;BME280;37613;51.788;21.582;2022-12-29T16:04:36;99653.66;;;7.33;78.04
51530;BME280;37613;51.788;21.582;2022-12-29T16:08:42;99651.51;;;7.24;78.03
51530;BME280;37613;51.788;21.582;2022-12-29T16:12:48;99651.55;;;7.14;78.07
51530;BME280;37613;51.788;21.582;2022-12-29T16:16:51;99648.20;;;7.05;78.07
51530;BME280;37613;51.788;21.582;2022-12-29T16:20:57;99649.41;;;6.97;78.14
51530;BME280;37613;51.788;21.582;2022-12-29T16:25:28;99649.45;;;6.91;78.15
51530;BME280;37613;51.788;21.582;2022-12-29T16:29:31;99647.55;;;6.87;78.11
51530;BME280;37613;51.788;21.582;2022-12-29T16:33:45;99650.52;;;6.83;78.08
51530;BME280;37613;51.788;21.582;2022-12-29T16:38:14;99646.08;;;6.78;77.95
51530;BME280;37613;51.788;21.582;2022-12-29T16:42:45;99648.63;;;6.73;78.04
51530;BME280;37613;51.788;21.582;2022-12-29T16:51:38;99648.30;;;6.59;78.15
51530;BME280;37613;51.788;21.582;2022-12-29T16:55:54;99649.67;;;6.52;77.92
51530;BME280;37613;51.788;21.582;2022-12-29T17:00:05;99656.68;;;6.46;78.12
51530;BME280;37613;51.788;21.582;2022-12-29T17:04:11;99660.42;;;6.40;78.23
51530;BME280;37613;51.788;21.582;2022-12-29T17:08:19;99656.14;;;6.36;78.23
51530;BME280;37613;51.788;21.582;2022-12-29T17:12:30;99653.56;;;6.28;77.98
51530;BME280;37613;51.788;21.582;2022-12-29T17:16:39;99656.55;;;6.19;78.10
51530;BME280;37613;51.788;21.582;2022-12-29T17:20:45;99655.91;;;6.09;78.15
51530;BME280;37613;51.788;21.582;2022-12-29T17:24:47;99654.57;;;6.00;78.26
51530;BME280;37613;51.788;21.582;2022-12-29T17:28:49;99660.02;;;5.90;78.26
51530;BME280;37613;51.788;21.582;2022-12-29T17:32:53;99660.77;;;5.78;78.40
51530;BME280;37613;51.788;21.582;2022-12-29T17:36:55;99665.14;;;5.70;78.59
51530;BME280;37613;51.788;21.582;2022-12-29T17:40:57;99665.52;;;5.63;78.55
51530;BME280;37613;51.788;21.582;2022-12-29T17:45:00;99667.63;;;5.54;78.67
51530;BME280;37613;51.788;21.582;2022-12-29T17:49:05;99672.91;;;5.45;78.75
51530;BME280;37613;51.788;21.582;2022-12-29T17:53:18;99674.02;;;5.39;78.85
51530;BME280;37613;51.788;21.582;2022-12-29T17:57:22;99668.77;;;5.33;78.96
51530;BME280;37613;51.788;21.582;2022-12-29T18:01:24;99675.94;;;5.29;79.23
51530;BME280;37613;51.788;21.582;2022-12-29T18:05:29;99674.58;;;5.27;79.32
51530;BME280;37613;51.788;21.582;2022-12-29T18:09:35;99675.96;;;5.30;79.53
51530;BME280;37613;51.788;21.582;2022-12-29T18:13:38;99678.48;;;5.31;79.49
51530;BME280;37613;51.788;21.582;2022-12-29T18:17:40;99683.27;;;5.33;79.48
51530;BME280;37613;51.788;21.582;2022-12-29T18:21:42;99682.95;;;5.37;79.62
51530;BME280;37613;51.788;21.582;2022-12-29T18:26:17;99687.94;;;5.42;79.75
51530;BME280;37613;51.788;21.582;2022-12-29T18:30:20;99686.90;;;5.46;79.80
51530;BME280;37613;51.788;21.582;2022-12-29T18:34:22;99687.81;;;5.52;79.99
51530;BME280;37613;51.788;21.582;2022-12-29T18:38:25;99688.33;;;5.55;79.92
51530;BME280;37613;51.788;21.582;2022-12-29T18:42:27;99684.92;;;5.58;80.13
51530;BME280;37613;51.788;21.582;2022-12-29T18:46:29;99681.68;;;5.63;80.20
51530;BME280;37613;51.788;21.582;2022-12-29T18:50:32;99681.06;;;5.64;80.36
51530;BME280;37613;51.788;21.582;2022-12-29T18:54:34;99674.12;;;5.67;80.39
51530;BME280;37613;51.788;21.582;2022-12-29T18:58:36;99676.42;;;5.69;80.43
51530;BME280;37613;51.788;21.582;2022-12-29T19:02:39;99672.59;;;5.70;80.32
51530;BME280;37613;51.788;21.582;2022-12-29T19:06:41;99666.95;;;5.71;80.45
51530;BME280;37613;51.788;21.582;2022-12-29T19:10:44;99670.34;;;5.74;80.47
51530;BME280;37613;51.788;21.582;2022-12-29T19:14:47;99664.46;;;5.73;80.60
51530;BME280;37613;51.788;21.582;2022-12-29T19:18:49;99661.33;;;5.74;80.50
51530;BME280;37613;51.788;21.582;2022-12-29T19:22:55;99662.41;;;5.72;80.61
51530;BME280;37613;51.788;21.582;2022-12-29T19:26:58;99664.67;;;5.72;80.64
51530;BME280;37613;51.788;21.582;2022-12-29T19:31:01;99668.58;;;5.69;80.79
51530;BME280;37613;51.788;21.582;2022-12-29T19:35:04;99671.61;;;5.68;80.86
51530;BME280;37613;51.788;21.582;2022-12-29T19:39:07;99676.29;;;5.64;80.97
51530;BME280;37613;51.788;21.582;2022-12-29T19:43:10;99682.84;;;5.61;81.05
51530;BME280;37613;51.788;21.582;2022-12-29T19:47:12;99683.98;;;5.59;81.07
51530;BME280;37613;51.788;21.582;2022-12-29T19:51:15;99688.50;;;5.56;81.15
51530;BME280;37613;51.788;21.582;2022-12-29T19:55:18;99687.64;;;5.56;81.12
51530;BME280;37613;51.788;21.582;2022-12-29T19:59:20;99677.59;;;5.55;81.29
51530;BME280;37613;51.788;21.582;2022-12-29T20:03:23;99674.16;;;5.57;81.41
51530;BME280;37613;51.788;21.582;2022-12-29T20:07:25;99666.95;;;5.57;81.43
51530;BME280;37613;51.788;21.582;2022-12-29T20:11:29;99664.88;;;5.60;81.39
51530;BME280;37613;51.788;21.582;2022-12-29T20:15:31;99663.09;;;5.62;81.59
51530;BME280;37613;51.788;21.582;2022-12-29T20:19:34;99660.42;;;5.62;81.62
51530;BME280;37613;51.788;21.582;2022-12-29T20:23:38;99663.10;;;5.63;81.67
51530;BME280;37613;51.788;21.582;2022-12-29T20:27:40;99660.89;;;5.62;81.66
51530;BME280;37613;51.788;21.582;2022-12-29T20:31:42;99669.70;;;5.65;81.63
51530;BME280;37613;51.788;21.582;2022-12-29T20:35:44;99668.29;;;5.64;81.80
51530;BME280;37613;51.788;21.582;2022-12-29T20:39:47;99669.60;;;5.63;81.73
51530;BME280;37613;51.788;21.582;2022-12-29T20:43:49;99671.48;;;5.62;81.73
51530;BME280;37613;51.788;21.582;2022-12-29T20:47:53;99671.64;;;5.63;81.90
51530;BME280;37613;51.788;21.582;2022-12-29T20:51:56;99676.34;;;5.63;81.87
51530;BME280;37613;51.788;21.582;2022-12-29T20:56:04;99675.86;;;5.61;82.02
51530;BME280;37613;51.788;21.582;2022-12-29T21:00:07;99682.34;;;5.60;82.05
51530;BME280;37613;51.788;21.582;2022-12-29T21:04:20;99683.83;;;5.59;82.05
51530;BME280;37613;51.788;21.582;2022-12-29T21:08:22;99683.26;;;5.57;81.85
51530;BME280;37613;51.788;21.582;2022-12-29T21:12:28;99684.34;;;5.56;82.02
51530;BME280;37613;51.788;21.582;2022-12-29T21:16:51;99680.09;;;5.55;82.21
51530;BME280;37613;51.788;21.582;2022-12-29T21:20:59;99687.96;;;5.51;82.12
51530;BME280;37613;51.788;21.582;2022-12-29T21:30:18;99690.75;;;5.36;82.08
51530;BME280;37613;51.788;21.582;2022-12-29T21:34:20;99686.41;;;5.27;82.14
51530;BME280;37613;51.788;21.582;2022-12-29T21:38:35;99693.15;;;5.22;82.34
51530;BME280;37613;51.788;21.582;2022-12-29T21:42:46;99689.81;;;5.17;82.40
51530;BME280;37613;51.788;21.582;2022-12-29T21:46:51;99686.35;;;5.17;82.62
51530;BME280;37613;51.788;21.582;2022-12-29T21:50:56;99686.67;;;5.16;82.68
51530;BME280;37613;51.788;21.582;2022-12-29T21:55:17;99689.45;;;5.14;82.58
51530;BME280;37613;51.788;21.582;2022-12-29T21:59:22;99691.59;;;5.10;82.54
51530;BME280;37613;51.788;21.582;2022-12-29T22:03:45;99695.71;;;5.07;82.60
51530;BME280;37613;51.788;21.582;2022-12-29T22:08:30;99693.39;;;5.04;82.65
51530;BME280;37613;51.788;21.582;2022-12-29T22:13:06;99691.31;;;5.01;82.87
51530;BME280;37613;51.788;21.582;2022-12-29T22:17:20;99690.91;;;4.99;82.83
51530;BME280;37613;51.788;21.582;2022-12-29T22:21:28;99692.65;;;4.97;82.86
51530;BME280;37613;51.788;21.582;2022-12-29T22:25:30;99686.74;;;4.94;82.95
51530;BME280;37613;51.788;21.582;2022-12-29T22:29:35;99688.15;;;4.93;83.07
51530;BME280;37613;51.788;21.582;2022-12-29T22:33:56;99694.80;;;4.92;83.20
51530;BME280;37613;51.788;21.582;2022-12-29T22:38:04;99697.88;;;4.94;83.40
51530;BME280;37613;51.788;21.582;2022-12-29T22:42:09;99695.50;;;4.98;83.48
51530;BME280;37613;51.788;21.582;2022-12-29T22:46:20;99692.41;;;5.00;83.51
51530;BME280;37613;51.788;21.582;2022-12-29T22:50:29;99694.08;;;5.08;83.52
51530;BME280;37613;51.788;21.582;2022-12-29T22:54:38;99703.43;;;5.11;83.49
51530;BME280;37613;51.788;21.582;2022-12-29T22:58:44;99704.98;;;5.10;83.40
51530;BME280;37613;51.788;21.582;2022-12-29T23:02:47;99704.95;;;5.07;83.52
51530;BME280;37613;51.788;21.582;2022-12-29T23:06:52;99709.04;;;5.03;83.34
51530;BME280;37613;51.788;21.582;2022-12-29T23:11:12;99714.27;;;5.01;83.36
51530;BME280;37613;51.788;21.582;2022-12-29T23:15:48;99719.80;;;4.99;83.34
51530;BME280;37613;51.788;21.582;2022-12-29T23:19:51;99720.50;;;4.98;83.49
51530;BME280;37613;51.788;21.582;2022-12-29T23:24:12;99719.83;;;4.97;83.61
51530;BME280;37613;51.788;21.582;2022-12-29T23:28:14;99715.70;;;4.98;83.78
51530;BME280;37613;51.788;21.582;2022-12-29T23:32:41;99714.30;;;4.98;83.67
51530;BME280;37613;51.788;21.582;2022-12-29T23:37:02;99711.64;;;4.98;83.65
51530;BME280;37613;51.788;21.582;2022-12-29T23:41:07;99716.35;;;4.94;83.83
51530;BME280;37613;51.788;21.582;2022-12-29T23:45:11;99713.08;;;4.90;83.72
51530;BME280;37613;51.788;21.582;2022-12-29T23:49:13;99716.56;;;4.87;83.70
51530;BME280;37613;51.788;21.582;2022-12-29T23:53:34;99716.58;;;4.83;83.75
51530;BME280;37613;51.788;21.582;2022-12-29T23:57:37;99723.89;;;4.80;83.78
